Time;durP1;ratioP1;P1;durP2;ratioP2;P2;SDS_P1;SDS_P2;PMS_P1;PMS_P2;Temp;Humidity;BMP_temperature;BMP_pressure;BME280_temperature;BME280_humidity;BME280_pressure;Samples;Min_cycle;Max_cycle;Signal;HPM_P1;HPM_P2
2023/11/21 00:02:14;;;;;;;13.77;7.05;;;;;;;5.27;76.28;99906.38;6124077;23;20458;-81
2023/11/21 00:04:40;;;;;;;12.10;7.68;;;;;;;5.06;76.43;99877.28;6150976;23;20013;-81
2023/11/21 00:07:08;;;;;;;12.02;7.65;;;;;;;5.71;75.41;99923.06;6124415;23;20436;-81
2023/11/21 00:09:34;;;;;;;14.20;8.00;;;;;;;5.90;74.13;99930.31;6124614;23;20739;-81
2023/11/21 00:12:00;;;;;;;11.57;6.82;;;;;;;6.00;73.31;99917.59;6123903;23;20013;-81
2023/11/21 00:14:25;;;;;;;11.98;6.80;;;;;;;5.98;72.41;99940.00;6124272;23;20015;-81
2023/11/21 00:16:51;;;;;;;13.95;6.10;;;;;;;5.75;73.15;99911.09;6150373;23;20008;-82
2023/11/21 00:19:16;;;;;;;19.05;12.40;;;;;;;5.86;73.17;99925.63;6150440;23;20005;-81
2023/11/21 00:21:44;;;;;;;12.98;6.25;;;;;;;5.87;71.67;99933.38;6124444;23;20029;-83
2023/11/21 00:24:10;;;;;;;13.03;5.90;;;;;;;5.81;71.41;99923.56;6149986;23;20014;-81
2023/11/21 00:26:37;;;;;;;9.25;5.10;;;;;;;5.70;71.56;99947.88;6124251;23;20036;-81
2023/11/21 00:29:03;;;;;;;11.05;5.47;;;;;;;5.75;71.52;99919.84;6153645;23;20032;-82
2023/11/21 00:31:30;;;;;;;16.20;5.30;;;;;;;5.63;71.93;99922.16;6150528;23;20028;-81
2023/11/21 00:33:56;;;;;;;19.35;15.15;;;;;;;5.40;72.52;99911.78;6124008;23;20084;-83
2023/11/21 00:36:21;;;;;;;11.95;6.45;;;;;;;5.41;73.66;99952.28;6149973;23;20029;-80
2023/11/21 00:38:48;;;;;;;11.43;6.28;;;;;;;4.73;76.99;99936.66;6124434;23;20013;-80
2023/11/21 00:41:13;;;;;;;13.70;7.03;;;;;;;4.74;77.38;99954.16;6150653;23;20407;-81
2023/11/21 00:43:39;;;;;;;17.92;9.88;;;;;;;4.09;79.46;99924.00;6124874;23;20022;-81
2023/11/21 00:46:07;;;;;;;20.85;9.75;;;;;;;4.00;80.29;99931.19;6124054;23;20432;-81
2023/11/21 00:48:33;;;;;;;18.13;9.13;;;;;;;3.74;81.06;99914.91;6123607;23;20013;-80
2023/11/21 00:50:58;;;;;;;20.42;9.38;;;;;;;4.39;79.02;99939.84;6149306;23;20032;-80
2023/11/21 00:53:24;;;;;;;17.88;10.95;;;;;;;4.28;79.27;99922.66;6123053;23;20012;-81
2023/11/21 00:55:49;;;;;;;13.52;7.90;;;;;;;4.58;78.56;99917.38;6149125;23;20440;-81
2023/11/21 00:58:18;;;;;;;20.13;9.55;;;;;;;4.35;79.84;99906.88;6123520;23;20660;-80
2023/11/21 01:00:43;;;;;;;18.80;8.85;;;;;;;4.45;79.20;99928.56;6123304;23;20013;-81
2023/11/21 01:03:09;;;;;;;15.90;8.07;;;;;;;4.46;79.06;99914.38;6122657;23;20017;-81
2023/11/21 01:05:36;;;;;;;14.85;7.20;;;;;;;4.33;78.00;99919.44;6122909;23;20009;-81
2023/11/21 01:08:02;;;;;;;13.35;6.75;;;;;;;4.19;78.70;99913.19;6149020;23;20061;-82
2023/11/21 01:10:27;;;;;;;11.35;6.63;;;;;;;4.77;75.53;99922.06;6149278;23;20001;-81
2023/11/21 01:12:53;;;;;;;10.35;5.78;;;;;;;4.83;75.86;99910.78;6123257;23;20009;-83
2023/11/21 01:15:18;;;;;;;13.27;6.95;;;;;;;5.14;73.67;99933.47;6122453;23;20016;-80
2023/11/21 01:17:43;;;;;;;9.23;4.93;;;;;;;5.06;73.09;99909.81;6148797;23;20002;-81
2023/11/21 01:20:12;;;;;;;11.73;5.50;;;;;;;5.15;72.61;99929.84;6148625;23;20071;-81
2023/11/21 01:22:38;;;;;;;10.25;5.18;;;;;;;4.97;73.68;99937.38;6122290;23;20015;-82
2023/11/21 01:25:07;;;;;;;11.25;5.45;;;;;;;4.31;76.36;99901.19;6122690;23;20005;-81
2023/11/21 01:27:32;;;;;;;12.55;5.93;;;;;;;4.85;75.59;99923.81;6148769;23;20002;-81
2023/11/21 01:29:58;;;;;;;12.90;5.95;;;;;;;5.00;74.40;99927.22;6122538;23;20010;-81
2023/11/21 01:32:23;;;;;;;11.18;6.15;;;;;;;4.59;76.23;99911.06;6122875;23;20013;-80
2023/11/21 01:34:50;;;;;;;10.68;5.63;;;;;;;4.99;75.08;99927.44;6148625;23;20005;-80
2023/11/21 01:37:17;;;;;;;11.68;5.95;;;;;;;5.09;74.36;99929.75;6148571;23;20006;-80
2023/11/21 01:39:44;;;;;;;11.40;6.15;;;;;;;5.06;74.55;99924.84;6148532;23;20012;-81
2023/11/21 01:42:09;;;;;;;10.23;5.65;;;;;;;4.94;75.65;99920.03;6148437;23;20458;-79
2023/11/21 01:44:35;;;;;;;9.88;5.30;;;;;;;4.68;75.85;99869.53;6122263;23;20013;-80
2023/11/21 01:47:05;;;;;;;9.85;5.20;;;;;;;5.07;74.91;99906.16;6122738;23;20065;-81
2023/11/21 01:51:49;;;;;;;9.82;4.55;;;;;;;4.95;73.95;99865.38;5065642;28;20768;-82
2023/11/21 01:54:17;;;;;;;9.48;4.60;;;;;;;5.24;73.61;99906.75;5074150;28;20033;-81
2023/11/21 01:56:46;;;;;;;10.82;5.32;;;;;;;4.83;74.94;99884.34;5065489;28;20101;-80
2023/11/21 01:59:14;;;;;;;10.38;5.75;;;;;;;4.78;75.64;99886.75;5066296;28;20036;-80
2023/11/21 02:01:39;;;;;;;8.35;4.90;;;;;;;5.20;74.26;99910.78;5064661;28;20154;-81
2023/11/21 02:04:05;;;;;;;8.93;4.50;;;;;;;5.10;74.49;99889.13;5064397;28;20067;-81
2023/11/21 02:06:30;;;;;;;11.55;5.53;;;;;;;5.27;73.47;99884.41;5069006;28;20091;-81
2023/11/21 02:08:56;;;;;;;8.02;4.60;;;;;;;5.28;74.15;99902.72;5065913;28;20029;-81
2023/11/21 02:11:21;;;;;;;9.77;5.78;;;;;;;5.28;73.55;99893.97;5064460;28;20017;-81
2023/11/21 02:13:49;;;;;;;9.95;5.90;;;;;;;5.03;74.09;99873.19;5064707;28;20029;-80
2023/11/21 02:16:15;;;;;;;11.70;6.03;;;;;;;5.06;74.55;99909.00;5072739;28;20111;-82
2023/11/21 02:18:41;;;;;;;15.75;6.50;;;;;;;3.95;79.46;99909.78;5064616;28;20565;-81
2023/11/21 02:21:07;;;;;;;9.90;5.32;;;;;;;3.85;79.86;99896.03;5064429;28;20128;-82
2023/11/21 02:23:33;;;;;;;12.93;6.72;;;;;;;4.08;79.11;99880.13;5064609;28;20028;-81
2023/11/21 02:25:59;;;;;;;10.88;5.95;;;;;;;4.38;77.82;99882.78;5065580;28;20029;-81
2023/11/21 02:28:28;;;;;;;11.90;5.85;;;;;;;4.60;76.36;99883.69;5064425;28;20123;-81
2023/11/21 02:30:55;;;;;;;14.10;6.85;;;;;;;4.74;76.05;99852.94;5065432;28;20055;-82
2023/11/21 02:33:21;;;;;;;11.40;6.65;;;;;;;4.55;77.63;99875.47;5065571;28;20028;-81
2023/11/21 02:35:47;;;;;;;10.68;5.60;;;;;;;3.46;80.54;99859.28;5065864;28;20102;-83
2023/11/21 02:38:13;;;;;;;12.27;6.70;;;;;;;3.56;79.52;99865.94;5069691;28;20033;-81
2023/11/21 02:40:39;;;;;;;13.05;6.55;;;;;;;3.13;81.20;99876.16;5063814;28;20029;-81
2023/11/21 02:43:05;;;;;;;12.73;7.15;;;;;;;3.24;78.88;99869.66;5065664;28;20130;-81
2023/11/21 02:45:31;;;;;;;10.43;5.72;;;;;;;2.57;82.07;99901.81;5065308;28;20021;-80
2023/11/21 02:47:58;;;;;;;11.55;5.82;;;;;;;1.87;82.69;99890.16;5065643;28;20119;-81
2023/11/21 02:50:23;;;;;;;10.13;5.30;;;;;;;1.56;83.05;99872.44;5063854;28;20049;-81
2023/11/21 02:52:49;;;;;;;9.70;4.50;;;;;;;2.63;80.37;99911.66;5064226;28;20028;-81
2023/11/21 02:55:15;;;;;;;8.10;4.45;;;;;;;2.79;79.60;99901.03;5065850;28;20037;-80
2023/11/21 02:57:40;;;;;;;10.18;5.53;;;;;;;2.75;81.23;99862.88;5070984;28;20036;-81
2023/11/21 03:00:15;;;;;;;9.20;5.60;;;;;;;2.87;82.12;99900.19;5063754;28;20036;-81
2023/11/21 03:02:41;;;;;;;11.75;5.75;;;;;;;3.00;82.22;99871.47;5054154;28;20047;-80
2023/11/21 03:05:08;;;;;;;10.35;5.60;;;;;;;3.33;82.85;99915.22;5057489;28;20495;-80
2023/11/21 03:07:34;;;;;;;10.53;6.17;;;;;;;3.20;82.88;99886.81;5063330;28;20037;-79
2023/11/21 03:10:00;;;;;;;13.38;6.85;;;;;;;3.38;81.63;99900.53;5049935;28;20482;-80
2023/11/21 03:12:26;;;;;;;11.15;5.82;;;;;;;3.13;82.02;99896.44;5050072;28;20091;-80
2023/11/21 03:14:51;;;;;;;12.35;5.88;;;;;;;3.49;79.55;99904.56;5050220;28;20024;-80
2023/11/21 03:17:17;;;;;;;9.95;5.93;;;;;;;2.77;83.45;99912.75;5051765;28;20033;-80
2023/11/21 03:19:42;;;;;;;10.88;5.80;;;;;;;2.42;86.65;99893.81;5050412;28;20086;-80
2023/11/21 03:22:08;;;;;;;17.10;6.32;;;;;;;2.75;85.65;99923.44;5050032;28;20032;-80
2023/11/21 03:24:34;;;;;;;12.15;6.63;;;;;;;2.86;84.95;99910.88;5051516;28;20410;-80
2023/11/21 03:27:00;;;;;;;30.15;18.92;;;;;;;2.63;86.26;99914.28;5051547;28;20025;-81
2023/11/21 03:29:25;;;;;;;18.85;13.23;;;;;;;2.66;86.57;99877.09;5049894;28;20867;-80
2023/11/21 03:31:51;;;;;;;18.15;11.80;;;;;;;3.27;82.45;99873.75;5051144;28;20055;-81
2023/11/21 03:34:23;;;;;;;18.00;10.80;;;;;;;3.52;80.41;99900.75;5050152;28;20108;-80
2023/11/21 03:36:49;;;;;;;20.48;10.93;;;;;;;3.46;81.13;99889.09;5056068;28;20037;-81
2023/11/21 03:39:14;;;;;;;17.52;11.25;;;;;;;2.83;84.56;99895.44;5053455;28;20029;-81
2023/11/21 03:41:39;;;;;;;16.02;11.10;;;;;;;2.64;86.01;99894.88;5051392;28;20033;-80
2023/11/21 03:44:05;;;;;;;16.83;11.02;;;;;;;2.95;83.42;99886.16;5049981;28;20017;-81
2023/11/21 03:46:30;;;;;;;14.27;8.20;;;;;;;2.96;83.53;99879.88;5054398;28;20025;-80
2023/11/21 03:48:56;;;;;;;14.00;6.60;;;;;;;3.45;82.08;99911.19;5050067;28;20410;-81
2023/11/21 03:51:21;;;;;;;10.65;6.18;;;;;;;3.14;83.03;99872.53;5049161;28;20033;-80
2023/11/21 03:53:47;;;;;;;9.85;4.82;;;;;;;3.34;83.36;99893.16;5049764;28;20036;-84
2023/11/21 03:56:13;;;;;;;9.60;5.22;;;;;;;3.23;84.70;99891.75;5050156;28;20055;-81
2023/11/21 03:58:39;;;;;;;10.40;4.80;;;;;;;3.13;85.50;99896.44;5059351;28;20118;-80
2023/11/21 04:01:05;;;;;;;9.55;5.47;;;;;;;2.88;85.54;99869.41;5049651;28;20116;-80
2023/11/21 04:03:30;;;;;;;8.68;4.72;;;;;;;2.38;89.27;99882.78;5049364;28;20028;-81
2023/11/21 04:05:55;;;;;;;10.18;5.45;;;;;;;2.90;86.33;99896.38;5049647;28;20410;-80
2023/11/21 04:08:21;;;;;;;13.38;5.47;;;;;;;2.25;88.95;99894.84;5054661;28;20052;-80
2023/11/21 04:10:46;;;;;;;9.52;5.07;;;;;;;2.15;90.88;99916.09;5049593;28;20033;-80
2023/11/21 04:13:12;;;;;;;12.13;5.03;;;;;;;1.67;89.17;99917.78;5047865;28;20025;-81
2023/11/21 04:15:37;;;;;;;9.73;5.07;;;;;;;1.91;88.18;99906.44;5049261;28;20067;-81
2023/11/21 04:18:03;;;;;;;11.68;6.10;;;;;;;1.94;88.62;99911.34;5049129;28;20029;-83
2023/11/21 04:20:28;;;;;;;14.90;7.70;;;;;;;2.47;86.69;99914.34;5048941;28;20505;-80
2023/11/21 04:22:54;;;;;;;11.07;6.30;;;;;;;2.52;87.83;99912.03;5049098;28;20178;-81
2023/11/21 04:25:19;;;;;;;11.48;5.57;;;;;;;2.26;89.47;99878.88;5049037;28;20057;-81
2023/11/21 04:27:45;;;;;;;13.18;6.53;;;;;;;2.41;90.02;99903.53;5057438;28;20115;-81
2023/11/21 04:30:11;;;;;;;12.27;6.00;;;;;;;2.59;88.84;99905.09;5049568;28;20128;-81
2023/11/21 04:32:38;;;;;;;11.88;4.93;;;;;;;2.11;90.63;99901.63;5048857;28;20037;-81
2023/11/21 04:35:05;;;;;;;9.20;5.18;;;;;;;2.68;89.09;99924.31;5048555;28;20402;-82
2023/11/21 04:37:30;;;;;;;9.48;5.18;;;;;;;2.66;87.08;99927.13;5056829;28;20052;-82
2023/11/21 04:39:55;;;;;;;15.70;6.15;;;;;;;2.62;86.51;99915.28;5048697;28;20466;-81
2023/11/21 04:42:21;;;;;;;12.35;5.38;;;;;;;2.61;85.11;99903.09;5048780;28;20021;-81
2023/11/21 04:44:47;;;;;;;9.75;4.75;;;;;;;2.25;89.00;99945.66;5050100;28;20486;-81
2023/11/21 04:47:12;;;;;;;10.45;5.50;;;;;;;1.56;90.88;99914.50;5050429;28;20444;-80
2023/11/21 04:49:42;;;;;;;10.52;6.40;;;;;;;1.31;91.21;99932.06;5049868;28;20128;-80
2023/11/21 04:52:09;;;;;;;11.52;5.75;;;;;;;1.10;91.86;99944.81;5048531;28;20124;-81
2023/11/21 04:54:35;;;;;;;8.52;5.15;;;;;;;1.20;90.61;99893.75;5048149;28;20086;-81
2023/11/21 04:57:00;;;;;;;10.18;5.97;;;;;;;1.93;87.37;99926.31;5050051;28;20509;-80
2023/11/21 04:59:27;;;;;;;9.90;5.35;;;;;;;1.85;87.99;99905.28;5057438;28;20109;-80
2023/11/21 05:01:53;;;;;;;12.10;6.22;;;;;;;1.46;89.45;99903.31;5049989;28;20083;-80
2023/11/21 05:04:19;;;;;;;10.00;5.60;;;;;;;1.33;90.39;99919.56;5049594;28;20480;-83
2023/11/21 05:06:44;;;;;;;9.70;6.15;;;;;;;1.98;87.87;99934.53;5049722;28;20036;-80
2023/11/21 05:09:11;;;;;;;15.57;6.32;;;;;;;2.04;87.27;99937.47;5053248;28;20025;-80
2023/11/21 05:11:37;;;;;;;10.75;6.50;;;;;;;1.76;89.13;99943.91;5049289;28;20044;-81
2023/11/21 05:14:05;;;;;;;13.45;7.25;;;;;;;1.98;87.38;99924.00;5047813;28;20029;-81
2023/11/21 05:16:31;;;;;;;17.52;8.02;;;;;;;2.18;87.09;99924.44;5047913;28;20031;-80
2023/11/21 05:19:00;;;;;;;15.98;7.60;;;;;;;2.51;85.56;99931.44;5053619;28;20416;-80
2023/11/21 05:21:26;;;;;;;13.02;7.82;;;;;;;2.77;84.96;99954.88;5047868;28;20090;-81
2023/11/21 05:23:52;;;;;;;15.73;7.75;;;;;;;2.07;89.23;99960.81;5048010;28;20680;-79
2023/11/21 05:26:17;;;;;;;14.50;7.72;;;;;;;1.98;89.40;99938.94;5047769;28;20029;-80
2023/11/21 05:28:43;;;;;;;19.48;8.27;;;;;;;2.76;87.30;99954.06;5054549;28;20545;-82
2023/11/21 05:31:08;;;;;;;15.88;8.75;;;;;;;2.40;87.65;99946.59;5047505;28;20120;-80
2023/11/21 05:33:34;;;;;;;18.65;9.95;;;;;;;2.47;88.21;99935.41;5049114;28;20048;-80
2023/11/21 05:35:59;;;;;;;15.32;8.35;;;;;;;2.54;87.67;99953.00;5047517;28;20021;-79
2023/11/21 05:38:25;;;;;;;13.48;7.90;;;;;;;2.05;89.47;99949.66;5055269;28;20116;-80
2023/11/21 05:40:51;;;;;;;15.60;8.00;;;;;;;1.88;89.90;99931.25;5051711;28;20032;-83
2023/11/21 05:43:16;;;;;;;18.48;8.88;;;;;;;2.29;89.41;99941.72;5047868;28;20036;-79
2023/11/21 05:45:42;;;;;;;18.63;9.07;;;;;;;2.06;90.64;99943.38;5048366;28;20107;-81
2023/11/21 05:48:07;;;;;;;54.70;30.08;;;;;;;2.11;91.27;99948.97;5059803;28;20032;-80
2023/11/21 05:50:33;;;;;;;292.55;131.23;;;;;;;2.08;89.70;99907.22;5052661;28;20099;-80
2023/11/21 05:53:00;;;;;;;322.20;138.43;;;;;;;2.41;90.70;99958.78;5047219;28;20033;-81
2023/11/21 05:55:26;;;;;;;295.17;134.23;;;;;;;2.32;90.77;99965.03;5047370;28;20037;-80
2023/11/21 05:57:51;;;;;;;226.00;104.82;;;;;;;2.04;91.04;99933.03;5055777;28;20036;-80
2023/11/21 06:00:20;;;;;;;178.68;89.90;;;;;;;2.37;89.95;99949.59;5049247;28;20068;-80
2023/11/21 06:02:46;;;;;;;;;;;;;;;2.38;90.71;99960.94;5049295;28;20028;-80
2023/11/21 06:05:11;;;;;;;108.80;56.00;;;;;;;2.33;91.98;99966.69;5047432;28;19909;-80
2023/11/21 06:07:37;;;;;;;107.85;59.30;;;;;;;2.24;91.53;99948.47;5056119;28;20047;-81
2023/11/21 06:10:06;;;;;;;115.47;68.85;;;;;;;2.40;90.99;99959.75;5049312;28;20037;-80
2023/11/21 06:12:35;;;;;;;112.47;63.35;;;;;;;2.83;88.35;99948.94;5047694;28;20119;-79
2023/11/21 06:15:04;;;;;;;126.43;69.15;;;;;;;2.80;88.55;99930.84;5047431;28;20513;-80
2023/11/21 06:17:30;;;;;;;149.88;88.53;;;;;;;3.14;88.09;99975.28;5053787;28;20553;-82
2023/11/21 06:19:56;;;;;;;95.05;57.75;;;;;;;3.46;86.24;99976.09;5053539;28;20108;-80
2023/11/21 06:22:21;;;;;;;69.90;50.17;;;;;;;3.56;82.60;99960.88;5048307;28;20496;-80
2023/11/21 06:24:46;;;;;;;65.57;41.75;;;;;;;3.75;83.08;99980.66;5048467;28;20100;-80
2023/11/21 06:27:12;;;;;;;62.08;36.15;;;;;;;3.63;83.34;99976.81;5047130;28;20033;-81
2023/11/21 06:29:38;;;;;;;68.10;37.72;;;;;;;3.66;82.38;99976.47;5057036;28;20115;-80
2023/11/21 06:32:05;;;;;;;86.85;52.28;;;;;;;3.59;84.60;99955.22;5047286;28;20490;-80
2023/11/21 06:34:30;;;;;;;49.55;30.63;;;;;;;3.37;86.67;99942.88;5048237;28;20016;-80
2023/11/21 06:36:56;;;;;;;40.67;24.27;;;;;;;3.81;84.60;99944.84;5047984;28;20024;-80
2023/11/21 06:39:22;;;;;;;31.85;21.02;;;;;;;4.05;83.13;99935.09;5054644;28;20512;-81
2023/11/21 06:41:49;;;;;;;34.08;23.17;;;;;;;4.68;81.19;99952.25;5050563;28;20647;-81
2023/11/21 06:44:15;;;;;;;40.13;25.33;;;;;;;4.75;80.67;99969.00;5050678;28;20025;-80
2023/11/21 06:46:42;;;;;;;111.68;52.78;;;;;;;5.08;78.33;99955.38;5051484;28;20094;-81
2023/11/21 06:49:08;;;;;;;133.68;66.60;;;;;;;5.47;77.47;99964.75;5055984;28;20493;-80
2023/11/21 06:51:33;;;;;;;57.65;32.30;;;;;;;5.62;76.40;99962.88;5052182;28;20045;-81
2023/11/21 06:53:59;;;;;;;32.08;21.50;;;;;;;5.89;76.19;99970.25;5050296;28;20025;-80
2023/11/21 06:56:24;;;;;;;26.80;17.88;;;;;;;6.01;75.68;99966.91;5050171;28;20028;-80
2023/11/21 06:58:53;;;;;;;26.80;18.92;;;;;;;6.53;74.37;99975.41;5050254;28;20111;-80
2023/11/21 07:01:19;;;;;;;27.50;17.88;;;;;;;6.84;73.22;99993.56;5052150;28;20541;-81
2023/11/21 07:03:45;;;;;;;30.30;22.02;;;;;;;6.73;73.49;99964.94;5051698;28;20112;-79
2023/11/21 07:06:11;;;;;;;30.85;23.50;;;;;;;6.57;74.65;99962.59;5050598;28;20037;-80
2023/11/21 07:08:37;;;;;;;24.83;17.13;;;;;;;7.27;73.32;99987.19;5052156;28;20060;-82
2023/11/21 07:11:03;;;;;;;19.30;11.80;;;;;;;7.35;72.58;99954.34;5055990;28;20106;-81
2023/11/21 07:13:29;;;;;;;14.77;10.00;;;;;;;7.33;72.59;99956.38;5050413;28;20065;-80
2023/11/21 07:15:54;;;;;;;13.55;9.30;;;;;;;7.92;71.96;99984.88;5050549;28;20052;-81
2023/11/21 07:18:20;;;;;;;13.70;8.80;;;;;;;7.99;72.12;99974.28;5057998;28;20033;-81
2023/11/21 07:20:45;;;;;;;19.98;12.05;;;;;;;8.18;70.42;99983.25;5061778;28;20036;-80
2023/11/21 07:23:11;;;;;;;20.48;12.65;;;;;;;8.04;71.77;99999.16;5061929;28;20028;-80
2023/11/21 07:25:36;;;;;;;23.52;13.93;;;;;;;8.02;73.55;99968.53;5050256;28;20108;-80
2023/11/21 07:28:02;;;;;;;19.83;12.68;;;;;;;8.34;71.39;99988.13;5050222;28;20027;-83
2023/11/21 07:30:27;;;;;;;19.17;11.80;;;;;;;8.43;71.46;99960.34;5060744;28;20116;-80
2023/11/21 07:32:53;;;;;;;17.45;11.68;;;;;;;8.98;69.18;99977.78;5050232;28;20754;-81
2023/11/21 07:35:19;;;;;;;17.42;11.10;;;;;;;9.43;67.55;99969.81;5050259;28;20549;-81
2023/11/21 07:37:44;;;;;;;18.40;12.13;;;;;;;9.67;66.72;99992.19;5051040;28;20048;-80
2023/11/21 07:40:11;;;;;;;16.52;11.05;;;;;;;9.60;66.36;99944.31;5053814;28;20039;-81
2023/11/21 07:42:37;;;;;;;16.35;10.90;;;;;;;9.63;67.20;99954.53;5052969;28;20083;-81
2023/11/21 07:45:04;;;;;;;14.82;8.93;;;;;;;9.81;65.88;99934.34;5049936;28;20029;-81
2023/11/21 07:47:30;;;;;;;89.90;34.38;;;;;;;9.83;66.65;99959.72;5049950;28;20021;-81
2023/11/21 07:49:58;;;;;;;52.85;23.10;;;;;;;9.73;66.36;99911.44;5052947;28;20094;-82
2023/11/21 07:52:23;;;;;;;97.68;43.47;;;;;;;10.24;64.75;99976.19;5070843;28;20043;-82
2023/11/21 07:54:49;;;;;;;21.30;11.23;;;;;;;10.05;65.02;99957.50;5069892;28;20028;-83
2023/11/21 07:57:14;;;;;;;10.75;6.10;;;;;;;10.31;64.13;99960.16;5069824;28;20481;-81
2023/11/21 07:59:40;;;;;;;9.25;4.82;;;;;;;10.43;64.01;99975.22;5060955;28;20036;-81
2023/11/21 08:02:07;;;;;;;9.90;5.00;;;;;;;10.81;62.51;99978.75;5051370;28;20033;-81
2023/11/21 08:04:32;;;;;;;8.95;4.78;;;;;;;10.80;62.95;99969.91;5049830;28;20033;-81
2023/11/21 08:06:58;;;;;;;8.70;4.30;;;;;;;10.81;62.71;99966.22;5049625;28;20017;-82
2023/11/21 08:09:23;;;;;;;8.00;4.53;;;;;;;11.01;62.66;99982.00;5052372;28;20402;-82
2023/11/21 08:11:49;;;;;;;10.68;5.60;;;;;;;11.01;61.90;99970.47;5053922;28;20029;-85
2023/11/21 08:14:15;;;;;;;9.25;4.75;;;;;;;10.92;62.08;99961.16;5049403;28;20021;-81
2023/11/21 08:16:40;;;;;;;7.65;4.25;;;;;;;11.51;60.96;99990.81;5050505;28;20021;-81
2023/11/21 08:19:06;;;;;;;7.32;3.63;;;;;;;11.41;60.81;99956.63;5049319;28;20108;-83
2023/11/21 08:21:31;;;;;;;9.10;4.28;;;;;;;11.37;60.98;99979.47;5058828;28;20021;-82
2023/11/21 08:23:57;;;;;;;7.75;4.20;;;;;;;11.47;60.43;99963.72;5048886;28;20059;-81
2023/11/21 08:26:23;;;;;;;7.78;4.25;;;;;;;11.48;60.88;99976.03;5050696;28;20109;-81
2023/11/21 08:28:49;;;;;;;10.52;4.38;;;;;;;11.71;59.68;99974.47;5050740;28;20075;-81
2023/11/21 08:31:14;;;;;;;11.40;6.03;;;;;;;11.44;60.74;99975.69;5057246;28;20024;-82
2023/11/21 08:33:40;;;;;;;32.17;14.75;;;;;;;11.18;61.48;99966.19;5049031;28;20151;-81
2023/11/21 08:36:09;;;;;;;14.60;7.57;;;;;;;11.61;59.96;99967.03;5049071;28;20029;-81
2023/11/21 08:38:39;;;;;;;8.25;4.43;;;;;;;11.33;60.88;99924.91;5050546;28;20025;-82
2023/11/21 08:41:09;;;;;;;10.10;4.80;;;;;;;11.79;60.61;99955.44;5050141;28;20021;-82
2023/11/21 08:43:39;;;;;;;9.10;4.75;;;;;;;11.89;59.51;99962.94;5048898;28;20098;-82
2023/11/21 08:46:11;;;;;;;8.85;4.82;;;;;;;12.23;58.86;99962.16;5049057;28;20039;-81
2023/11/21 08:48:36;;;;;;;8.80;4.95;;;;;;;12.37;57.67;99949.38;5048937;28;20032;-81
2023/11/21 08:51:03;;;;;;;8.95;4.57;;;;;;;12.21;60.10;99963.44;5061213;28;20044;-82
2023/11/21 08:53:30;;;;;;;6.85;3.95;;;;;;;12.18;57.91;99953.22;5068922;28;20032;-81
2023/11/21 08:55:56;;;;;;;6.43;3.67;;;;;;;11.79;58.49;99929.56;5068711;28;20156;-82
2023/11/21 08:58:22;;;;;;;7.28;3.50;;;;;;;12.05;57.02;99932.84;5068854;28;20104;-81
2023/11/21 09:00:47;;;;;;;8.50;4.43;;;;;;;12.33;58.12;99956.22;5057339;28;20029;-82
2023/11/21 09:03:13;;;;;;;14.32;8.88;;;;;;;12.59;56.53;99932.72;5054985;28;20037;-81
2023/11/21 09:05:39;;;;;;;445.83;227.93;;;;;;;12.49;55.86;99944.00;5048557;28;20035;-82
2023/11/21 09:08:05;;;;;;;29.35;14.95;;;;;;;12.45;56.91;99910.75;5049989;28;20094;-82
2023/11/21 09:10:31;;;;;;;7.30;3.38;;;;;;;12.38;56.33;99931.44;5048278;28;20025;-81
2023/11/21 09:12:56;;;;;;;8.07;4.05;;;;;;;12.20;57.49;99898.47;5048479;28;20406;-82
2023/11/21 09:15:22;;;;;;;7.88;4.43;;;;;;;12.35;57.60;99922.03;5048076;28;20483;-81
2023/11/21 09:17:47;;;;;;;7.05;3.78;;;;;;;12.63;57.05;99907.13;5049933;28;20033;-82
2023/11/21 09:20:14;;;;;;;10.20;4.85;;;;;;;12.69;56.28;99916.88;5049119;28;20121;-81
2023/11/21 09:22:40;;;;;;;9.45;4.07;;;;;;;12.58;57.00;99885.63;5054078;28;20508;-81
2023/11/21 09:25:07;;;;;;;20.00;9.48;;;;;;;13.34;54.62;99906.88;5048301;28;20094;-81
2023/11/21 09:27:35;;;;;;;14.25;8.27;;;;;;;13.59;52.93;99899.31;5048320;28;20036;-82
2023/11/21 09:30:01;;;;;;;10.55;5.50;;;;;;;13.61;53.41;99905.22;5054560;28;20037;-81
2023/11/21 09:32:26;;;;;;;7.93;3.63;;;;;;;13.32;53.10;99903.63;5061010;28;20021;-81
2023/11/21 09:34:53;;;;;;;5.93;3.22;;;;;;;13.20;53.33;99896.47;5049082;28;20040;-82
2023/11/21 09:37:19;;;;;;;8.60;3.72;;;;;;;13.51;53.42;99904.25;5049311;28;20035;-81
2023/11/21 09:39:44;;;;;;;8.40;3.88;;;;;;;13.82;52.04;99897.50;5048185;28;20029;-83
2023/11/21 09:42:12;;;;;;;8.30;4.70;;;;;;;13.60;52.02;99865.28;5055661;28;20029;-81
2023/11/21 09:45:01;;;;;;;7.88;4.05;;;;;;;13.86;51.52;99904.81;5068141;28;20025;-82
2023/11/21 09:47:27;;;;;;;7.28;3.13;;;;;;;13.82;51.85;99874.19;5068564;28;20459;-82
2023/11/21 09:49:54;;;;;;;7.65;3.63;;;;;;;13.38;52.84;99859.81;5063930;28;20160;-82
2023/11/21 09:52:26;;;;;;;6.22;3.67;;;;;;;13.12;53.29;99861.22;5051021;28;20036;-82
2023/11/21 09:54:57;;;;;;;6.95;3.85;;;;;;;13.00;53.57;99866.63;5054798;28;20063;-83
2023/11/21 09:57:25;;;;;;;7.60;3.50;;;;;;;13.65;52.11;99863.50;5056655;28;20021;-83
2023/11/21 09:59:58;;;;;;;6.95;4.05;;;;;;;13.76;53.10;99863.66;5058457;28;20037;-83
2023/11/21 10:02:27;;;;;;;11.25;4.60;;;;;;;13.79;52.84;99871.19;5063897;28;20021;-82
2023/11/21 10:04:54;;;;;;;6.82;3.85;;;;;;;13.58;52.64;99848.63;5055976;28;20574;-83
2023/11/21 10:07:20;;;;;;;6.65;4.25;;;;;;;13.87;51.77;99843.97;5057767;28;20033;-83
2023/11/21 10:09:48;;;;;;;8.73;4.30;;;;;;;13.74;53.16;99860.41;5057120;28;20035;-85
2023/11/21 10:12:15;;;;;;;8.57;4.60;;;;;;;13.55;52.87;99822.34;5065726;28;20056;-84
2023/11/21 10:14:43;;;;;;;8.52;4.63;;;;;;;14.02;52.65;99848.75;5061452;28;20555;-82
2023/11/21 10:17:11;;;;;;;;;;;;;;;14.32;52.28;99844.84;5061640;28;20064;-84
2023/11/21 10:19:39;;;;;;;11.63;5.03;;;;;;;14.71;51.04;99813.44;5060969;28;19905;-85
2023/11/21 10:22:06;;;;;;;11.85;5.40;;;;;;;15.18;49.78;99828.09;5065253;28;20027;-84
2023/11/21 10:24:32;;;;;;;8.50;5.30;;;;;;;15.11;49.20;99812.19;5059469;28;20492;-84
2023/11/21 10:26:58;;;;;;;9.32;4.82;;;;;;;14.84;50.17;99834.50;5060976;28;20084;-84
2023/11/21 10:29:24;;;;;;;9.80;4.88;;;;;;;14.97;50.29;99811.00;5056066;28;20035;-82
2023/11/21 10:31:50;;;;;;;10.95;4.78;;;;;;;15.34;49.36;99807.56;5067092;28;20437;-84
2023/11/21 10:34:20;;;;;;;9.73;5.53;;;;;;;15.51;47.89;99784.03;5062831;28;20033;-85
2023/11/21 10:36:46;;;;;;;9.75;5.20;;;;;;;15.85;48.56;99807.94;5054456;28;20043;-82
2023/11/21 10:39:23;;;;;;;9.82;5.72;;;;;;;16.13;47.47;99811.31;5054270;28;20586;-82
2023/11/21 10:41:50;;;;;;;14.68;6.57;;;;;;;15.82;48.03;99790.44;5059871;28;20055;-84
2023/11/21 10:44:26;;;;;;;15.30;7.67;;;;;;;16.01;47.73;99793.50;5054012;28;20044;-83
2023/11/21 10:46:55;;;;;;;9.55;4.70;;;;;;;15.36;48.86;99794.66;5054209;28;20706;-82
2023/11/21 10:49:24;;;;;;;9.02;4.47;;;;;;;15.37;49.29;99797.09;5053818;28;20397;-84
2023/11/21 10:51:52;;;;;;;10.85;5.15;;;;;;;15.48;49.47;99784.56;5066222;28;20092;-83
2023/11/21 10:54:21;;;;;;;;;;;;;;;15.50;48.55;99787.78;5062863;28;20040;-82
2023/11/21 10:56:50;;;;;;;8.30;5.00;;;;;;;15.33;49.46;99779.06;5054847;28;19908;-82
2023/11/21 10:59:17;;;;;;;7.38;4.40;;;;;;;15.10;49.44;99773.00;5053638;28;20029;-84
2023/11/21 11:01:45;;;;;;;11.30;5.90;;;;;;;15.11;49.28;99787.22;5062247;28;20097;-85
2023/11/21 11:04:16;;;;;;;10.43;5.82;;;;;;;15.06;49.45;99736.97;5057308;28;20087;-82
2023/11/21 11:07:05;;;;;;;9.43;5.22;;;;;;;15.15;48.45;99756.09;5054186;28;20071;-83
2023/11/21 11:09:34;;;;;;;12.70;5.93;;;;;;;15.15;48.77;99764.16;5052629;28;20037;-82
2023/11/21 11:12:02;;;;;;;9.02;4.85;;;;;;;15.16;49.89;99760.38;5053997;28;20560;-82
2023/11/21 11:14:28;;;;;;;12.73;6.28;;;;;;;15.15;49.00;99762.28;5060364;28;20037;-82
2023/11/21 11:16:55;;;;;;;10.10;5.25;;;;;;;14.84;50.71;99759.31;5053109;28;20029;-83
2023/11/21 11:19:21;;;;;;;11.60;5.50;;;;;;;14.81;49.85;99743.75;5051430;28;20025;-83
2023/11/21 11:21:53;;;;;;;21.15;11.70;;;;;;;14.73;49.89;99725.41;5051277;28;20085;-82
2023/11/21 11:24:56;;;;;;;9.23;4.60;;;;;;;14.64;50.50;99743.81;5052090;28;20029;-82
2023/11/21 11:28:01;;;;;;;9.05;4.82;;;;;;;14.60;51.23;99736.53;5050911;28;20025;-83
2023/11/21 11:30:38;;;;;;;29.35;23.17;;;;;;;14.27;52.15;99733.75;5051919;28;20031;-82
2023/11/21 11:33:25;;;;;;;9.87;6.33;;;;;;;13.86;53.33;99702.97;5053949;28;20047;-82